createdAt,value
2018-07-02T00:00:14.218Z,98679.00
2018-07-02T00:02:42.656Z,98681.00
2018-07-02T00:05:11.104Z,98681.00
2018-07-02T00:07:39.321Z,98669.00
2018-07-02T00:10:09.094Z,98669.00
2018-07-02T00:12:37.562Z,98672.00
2018-07-02T00:15:06.178Z,98680.00
2018-07-02T00:17:34.877Z,98672.00
2018-07-02T00:20:03.522Z,98673.00
2018-07-02T00:22:31.970Z,98668.00
2018-07-02T00:25:00.504Z,98661.00
2018-07-02T00:27:30.472Z,98662.00
2018-07-02T00:29:59.919Z,98671.00
2018-07-02T00:32:28.895Z,98655.00
2018-07-02T00:34:58.244Z,98657.00
2018-07-02T00:37:26.701Z,98660.00
2018-07-02T00:39:55.148Z,98651.00
2018-07-02T00:42:23.598Z,98652.00
2018-07-02T00:44:52.042Z,98656.00
2018-07-02T00:47:20.497Z,98655.00
2018-07-02T00:49:48.957Z,98655.00
2018-07-02T00:52:17.418Z,98655.00
2018-07-02T00:54:45.873Z,98651.00
2018-07-02T00:57:14.343Z,98653.00
2018-07-02T00:59:42.822Z,98653.00
2018-07-02T01:02:11.294Z,98654.00
2018-07-02T01:04:39.850Z,98654.00
2018-07-02T01:07:08.834Z,98646.00
2018-07-02T01:09:37.300Z,98651.00
2018-07-02T01:12:05.928Z,98649.00
2018-07-02T01:14:34.411Z,98650.00
2018-07-02T01:17:02.858Z,98649.00
2018-07-02T01:19:31.530Z,98659.00
2018-07-02T01:22:01.174Z,98648.00
2018-07-02T01:24:31.070Z,98638.00
2018-07-02T01:26:59.594Z,98645.00
2018-07-02T01:29:29.437Z,98656.00
2018-07-02T01:31:59.163Z,98655.00
2018-07-02T01:34:28.069Z,98654.00
2018-07-02T01:36:56.512Z,98651.00
2018-07-02T01:39:24.952Z,98651.00
2018-07-02T01:41:53.386Z,98654.00
2018-07-02T01:44:21.817Z,98653.00
2018-07-02T01:46:50.058Z,98654.00
2018-07-02T01:49:18.629Z,98655.00
2018-07-02T01:51:47.074Z,98656.00
2018-07-02T01:54:15.518Z,98656.00
2018-07-02T01:56:43.953Z,98661.00
2018-07-02T01:59:12.389Z,98652.00
2018-07-02T02:01:40.824Z,98650.00
2018-07-02T02:04:09.259Z,98650.00
2018-07-02T02:06:37.685Z,98650.00
2018-07-02T02:09:08.345Z,98638.00
2018-07-02T02:11:36.913Z,98642.00
2018-07-02T02:14:05.736Z,98639.00
2018-07-02T02:16:34.225Z,98643.00
2018-07-02T02:19:02.655Z,98635.00
2018-07-02T02:21:31.089Z,98629.00
2018-07-02T02:24:00.347Z,98633.00
2018-07-02T02:26:29.926Z,98627.00
2018-07-02T02:28:59.048Z,98645.00
2018-07-02T02:31:27.976Z,98632.00
2018-07-02T02:33:56.510Z,98632.00
2018-07-02T02:36:24.935Z,98625.00
2018-07-02T02:38:53.353Z,98626.00
2018-07-02T02:41:21.828Z,98627.00
2018-07-02T02:46:40.882Z,98617.00
2018-07-02T02:49:09.307Z,98623.00
2018-07-02T02:51:37.752Z,98623.00
2018-07-02T02:54:06.175Z,98630.00
2018-07-02T02:56:34.593Z,98628.00
2018-07-02T02:59:03.059Z,98623.00
2018-07-02T03:01:31.486Z,98634.00
2018-07-02T03:04:00.941Z,98645.00
2018-07-02T03:06:30.425Z,98635.00
2018-07-02T03:08:59.136Z,98644.00
2018-07-02T03:11:27.964Z,98640.00
2018-07-02T03:13:56.486Z,98640.00
2018-07-02T03:16:24.954Z,98642.00
2018-07-02T03:18:53.567Z,98643.00
2018-07-02T03:21:21.982Z,98649.00
2018-07-02T03:23:50.426Z,98643.00
2018-07-02T03:26:18.865Z,98651.00
2018-07-02T03:28:47.411Z,98649.00
2018-07-02T03:31:15.829Z,98650.00
2018-07-02T03:33:44.272Z,98637.00
2018-07-02T03:36:12.724Z,98639.00
2018-07-02T03:38:41.160Z,98645.00
2018-07-02T03:41:09.577Z,98643.00
2018-07-02T03:43:38.031Z,98633.00
2018-07-02T03:46:06.717Z,98640.00
2018-07-02T03:48:35.128Z,98628.00
2018-07-02T03:51:03.782Z,98633.00
2018-07-02T03:53:32.345Z,98631.00
2018-07-02T03:56:00.982Z,98632.00
2018-07-02T03:58:30.395Z,98631.00
2018-07-02T04:00:59.324Z,98633.00
2018-07-02T04:03:28.041Z,98625.00
2018-07-02T04:05:56.499Z,98631.00
2018-07-02T04:08:24.935Z,98622.00
2018-07-02T04:10:53.380Z,98626.00
2018-07-02T04:13:21.929Z,98625.00
2018-07-02T04:15:50.363Z,98627.00
2018-07-02T04:18:18.973Z,98630.00
2018-07-02T04:20:47.410Z,98632.00
2018-07-02T04:23:15.833Z,98630.00
2018-07-02T04:25:44.262Z,98637.00
2018-07-02T04:28:12.970Z,98626.00
2018-07-02T04:30:41.539Z,98637.00
2018-07-02T04:33:09.965Z,98638.00
2018-07-02T04:35:38.410Z,98636.00
2018-07-02T04:38:06.827Z,98632.00
2018-07-02T04:40:35.275Z,98631.00
2018-07-02T04:43:04.153Z,98639.00
2018-07-02T04:45:32.161Z,98632.00
2018-07-02T04:48:00.600Z,98635.00
2018-07-02T04:50:30.462Z,98642.00
2018-07-02T04:52:59.609Z,98639.00
2018-07-02T04:55:28.995Z,98638.00
2018-07-02T04:57:58.139Z,98637.00
2018-07-02T05:00:26.564Z,98641.00
2018-07-02T05:02:54.983Z,98640.00
2018-07-02T05:05:23.401Z,98637.00
2018-07-02T05:07:51.893Z,98643.00
2018-07-02T05:10:20.379Z,98649.00
2018-07-02T05:12:48.781Z,98648.00
2018-07-02T05:15:17.225Z,98646.00
2018-07-02T05:17:45.777Z,98648.00
2018-07-02T05:20:14.178Z,98656.00
2018-07-02T05:22:42.579Z,98656.00
2018-07-02T05:25:10.973Z,98659.00
2018-07-02T05:27:39.369Z,98652.00
2018-07-02T05:30:07.778Z,98648.00
2018-07-02T05:32:36.175Z,98654.00
2018-07-02T05:35:04.581Z,98652.00
2018-07-02T05:37:32.983Z,98652.00
2018-07-02T05:40:01.396Z,98643.00
2018-07-02T05:42:30.504Z,98663.00
2018-07-02T05:44:59.679Z,98656.00
2018-07-02T05:47:29.315Z,98658.00
2018-07-02T05:49:58.007Z,98647.00
2018-07-02T05:52:26.436Z,98650.00
2018-07-02T05:54:54.887Z,98654.00
2018-07-02T05:57:23.275Z,98657.00
2018-07-02T05:59:51.720Z,98659.00
2018-07-02T06:02:20.295Z,98656.00
2018-07-02T06:04:48.755Z,98658.00
2018-07-02T06:07:17.159Z,98655.00
2018-07-02T06:09:45.577Z,98649.00
2018-07-02T06:12:13.998Z,98652.00
2018-07-02T06:14:42.417Z,98646.00
2018-07-02T06:17:10.844Z,98640.00
2018-07-02T06:19:39.258Z,98641.00
2018-07-02T06:22:07.668Z,98653.00
2018-07-02T06:24:36.069Z,98638.00
2018-07-02T06:27:04.606Z,98640.00
2018-07-02T06:29:33.014Z,98642.00
2018-07-02T06:32:01.455Z,98634.00
2018-07-02T06:34:30.962Z,98635.00
2018-07-02T06:36:59.974Z,98640.00
2018-07-02T06:39:28.956Z,98631.00
2018-07-02T06:41:58.242Z,98639.00
2018-07-02T06:44:26.598Z,98631.00
2018-07-02T06:46:54.996Z,98642.00
2018-07-02T06:49:23.430Z,98642.00
2018-07-02T06:51:51.852Z,98643.00
2018-07-02T06:54:20.280Z,98630.00
2018-07-02T06:56:49.046Z,98632.00
2018-07-02T06:59:17.460Z,98638.00
2018-07-02T07:01:45.859Z,98626.00
2018-07-02T07:04:14.285Z,98619.00
2018-07-02T07:06:42.877Z,98626.00
2018-07-02T07:09:12.243Z,98631.00
2018-07-02T07:11:40.965Z,98615.00
2018-07-02T07:14:09.567Z,98621.00
2018-07-02T07:16:37.978Z,98632.00
2018-07-02T07:19:06.435Z,98627.00
2018-07-02T07:21:34.892Z,98626.00
2018-07-02T07:24:03.458Z,98625.00
2018-07-02T07:26:31.952Z,98622.00
2018-07-02T07:29:00.969Z,98626.00
2018-07-02T07:31:30.432Z,98629.00
2018-07-02T07:34:00.013Z,98628.00
2018-07-02T07:36:28.857Z,98624.00
2018-07-02T07:38:58.094Z,98629.00
2018-07-02T07:41:26.505Z,98624.00
2018-07-02T07:43:54.902Z,98622.00
2018-07-02T07:46:23.313Z,98616.00
2018-07-02T07:48:51.727Z,98633.00
2018-07-02T07:51:20.159Z,98630.00
2018-07-02T07:53:48.566Z,98635.00
2018-07-02T07:56:17.102Z,98634.00
2018-07-02T07:58:45.508Z,98630.00
2018-07-02T08:01:13.909Z,98624.00
2018-07-02T08:03:42.326Z,98628.00
2018-07-02T08:06:10.851Z,98631.00
2018-07-02T08:08:39.251Z,98622.00
2018-07-02T08:11:07.657Z,98626.00
2018-07-02T08:13:36.064Z,98623.00
2018-07-02T08:16:04.489Z,98618.00
2018-07-02T08:18:33.165Z,98610.00
2018-07-02T08:21:01.610Z,98620.00
2018-07-02T08:23:31.248Z,98610.00
2018-07-02T08:26:00.777Z,98615.00
2018-07-02T08:28:30.069Z,98622.00
2018-07-02T08:30:58.955Z,98627.00
2018-07-02T08:33:28.494Z,98619.00
2018-07-02T08:35:56.936Z,98610.00
2018-07-02T08:38:25.336Z,98614.00
2018-07-02T08:40:53.922Z,98610.00
2018-07-02T08:43:22.339Z,98618.00
2018-07-02T08:45:50.765Z,98616.00
2018-07-02T08:48:19.216Z,98609.00
2018-07-02T08:50:47.646Z,98614.00
2018-07-02T08:53:16.071Z,98612.00
2018-07-02T08:55:44.806Z,98603.00
2018-07-02T08:58:13.264Z,98610.00
2018-07-02T09:00:41.693Z,98606.00
2018-07-02T09:03:10.117Z,98604.00
2018-07-02T09:05:38.539Z,98612.00
2018-07-02T09:08:06.963Z,98607.00
2018-07-02T09:10:35.402Z,98616.00
2018-07-02T09:13:03.822Z,98601.00
2018-07-02T09:15:32.271Z,98597.00
2018-07-02T09:18:01.516Z,98601.00
2018-07-02T09:20:31.190Z,98599.00
2018-07-02T09:23:00.385Z,98595.00
2018-07-02T09:25:28.914Z,98583.00
2018-07-02T09:27:57.974Z,98581.00
2018-07-02T09:30:26.401Z,98580.00
2018-07-02T09:32:54.849Z,98581.00
2018-07-02T09:35:23.637Z,98579.00
2018-07-02T09:37:52.055Z,98579.00
2018-07-02T09:40:20.511Z,98581.00
2018-07-02T09:42:49.078Z,98593.00
2018-07-02T09:45:17.388Z,98594.00
2018-07-02T09:47:45.814Z,98587.00
2018-07-02T09:50:14.247Z,98580.00
2018-07-02T09:52:42.675Z,98584.00
2018-07-02T09:55:11.103Z,98584.00
2018-07-02T09:57:39.528Z,98592.00
2018-07-02T10:00:08.234Z,98588.00
2018-07-02T10:02:36.654Z,98590.00
2018-07-02T10:05:05.122Z,98593.00
2018-07-02T10:07:35.709Z,98597.00
2018-07-02T10:10:04.179Z,98581.00
2018-07-02T10:12:32.675Z,98590.00
2018-07-02T10:15:01.135Z,98587.00
2018-07-02T10:17:30.967Z,98581.00
2018-07-02T10:19:59.953Z,98579.00
2018-07-02T10:22:28.946Z,98574.00
2018-07-02T10:24:58.041Z,98567.00
2018-07-02T10:27:26.470Z,98566.00
2018-07-02T10:29:55.039Z,98566.00
2018-07-02T10:32:23.571Z,98569.00
2018-07-02T10:34:52.092Z,98568.00
2018-07-02T10:37:20.445Z,98558.00
2018-07-02T10:39:48.999Z,98564.00
2018-07-02T10:42:17.427Z,98555.00
2018-07-02T10:44:45.990Z,98559.00
2018-07-02T10:47:14.424Z,98551.00
2018-07-02T10:49:42.873Z,98560.00
2018-07-02T10:52:11.319Z,98554.00
2018-07-02T10:54:39.756Z,98562.00
2018-07-02T10:57:08.681Z,98558.00
2018-07-02T10:59:37.297Z,98549.00
2018-07-02T11:02:05.736Z,98550.00
2018-07-02T11:04:34.163Z,98552.00
2018-07-02T11:07:03.104Z,98542.00
2018-07-02T11:09:32.422Z,98538.00
2018-07-02T11:12:01.305Z,98540.00
2018-07-02T11:14:30.436Z,98549.00
2018-07-02T11:16:59.317Z,98549.00
2018-07-02T11:19:29.428Z,98535.00
2018-07-02T11:21:58.490Z,98539.00
2018-07-02T11:24:26.910Z,98540.00
2018-07-02T11:26:55.480Z,98540.00
2018-07-02T11:29:23.888Z,98550.00
2018-07-02T11:31:52.332Z,98539.00
2018-07-02T11:34:20.994Z,98540.00
2018-07-02T11:36:49.448Z,98535.00
2018-07-02T11:39:17.915Z,98531.00
2018-07-02T11:41:46.327Z,98518.00
2018-07-02T11:44:14.813Z,98526.00
2018-07-02T11:46:43.202Z,98517.00
2018-07-02T11:49:11.658Z,98524.00
2018-07-02T11:51:40.106Z,98527.00
2018-07-02T11:54:08.556Z,98530.00
2018-07-02T11:56:37.026Z,98527.00
2018-07-02T11:59:05.946Z,98521.00
2018-07-02T12:01:34.357Z,98516.00
2018-07-02T12:04:03.212Z,98513.00
2018-07-02T12:06:31.629Z,98509.00
2018-07-02T12:09:00.646Z,98509.00
2018-07-02T12:11:30.024Z,98509.00
2018-07-02T12:13:59.336Z,98510.00
2018-07-02T12:16:28.412Z,98519.00
2018-07-02T12:18:56.864Z,98516.00
2018-07-02T12:21:25.301Z,98520.00
2018-07-02T12:23:53.774Z,98517.00
2018-07-02T12:26:22.222Z,98511.00
2018-07-02T12:28:50.690Z,98504.00
2018-07-02T12:31:19.113Z,98507.00
2018-07-02T12:33:47.854Z,98511.00
2018-07-02T12:36:16.356Z,98512.00
2018-07-02T12:38:44.899Z,98511.00
2018-07-02T12:41:13.362Z,98505.00
2018-07-02T12:43:41.784Z,98493.00
2018-07-02T12:46:10.207Z,98503.00
2018-07-02T12:48:38.631Z,98503.00
2018-07-02T12:51:07.054Z,98504.00
2018-07-02T12:53:36.138Z,98498.00
2018-07-02T12:56:04.561Z,98492.00
2018-07-02T12:58:33.009Z,98502.00
2018-07-02T13:01:01.513Z,98509.00
2018-07-02T13:03:30.951Z,98510.00
2018-07-02T13:06:00.500Z,98504.00
2018-07-02T13:08:30.382Z,98499.00
2018-07-02T13:10:58.940Z,98501.00
2018-07-02T13:13:28.000Z,98497.00
2018-07-02T13:15:56.429Z,98492.00
2018-07-02T13:18:24.857Z,98486.00
2018-07-02T13:20:53.295Z,98491.00
2018-07-02T13:23:21.750Z,98483.00
2018-07-02T13:25:50.189Z,98489.00
2018-07-02T13:28:18.635Z,98492.00
2018-07-02T13:30:47.105Z,98487.00
2018-07-02T13:33:15.522Z,98477.00
2018-07-02T13:35:43.970Z,98482.00
2018-07-02T13:38:12.400Z,98488.00
2018-07-02T13:40:40.956Z,98478.00
2018-07-02T13:43:09.409Z,98490.00
2018-07-02T13:45:37.856Z,98479.00
2018-07-02T13:48:07.341Z,98482.00
2018-07-02T13:50:35.777Z,98484.00
2018-07-02T13:53:04.204Z,98473.00
2018-07-02T13:55:32.663Z,98482.00
2018-07-02T13:58:01.087Z,98475.00
2018-07-02T14:00:30.657Z,98479.00
2018-07-02T14:03:00.433Z,98473.00
2018-07-02T14:05:29.688Z,98474.00
2018-07-02T14:07:59.398Z,98469.00
2018-07-02T14:10:28.092Z,98468.00
2018-07-02T14:12:56.601Z,98472.00
2018-07-02T14:15:25.025Z,98468.00
2018-07-02T14:17:53.454Z,98466.00
2018-07-02T14:20:22.280Z,98463.00
2018-07-02T14:22:51.205Z,98454.00
2018-07-02T14:25:19.657Z,98449.00
2018-07-02T14:27:48.223Z,98459.00
2018-07-02T14:30:16.679Z,98457.00
2018-07-02T14:32:45.213Z,98457.00
2018-07-02T14:35:13.735Z,98464.00
2018-07-02T14:37:41.945Z,98464.00
2018-07-02T14:40:11.838Z,98466.00
2018-07-02T14:42:40.447Z,98464.00
2018-07-02T14:45:09.192Z,98451.00
2018-07-02T14:47:37.951Z,98457.00
2018-07-02T14:50:06.385Z,98457.00
2018-07-02T14:52:34.553Z,98452.00
2018-07-02T14:55:03.004Z,98453.00
2018-07-02T14:57:31.703Z,98454.00
2018-07-02T15:00:00.687Z,98447.00
2018-07-02T15:02:29.955Z,98446.00
2018-07-02T15:04:59.052Z,98446.00
2018-07-02T15:07:28.015Z,98441.00
2018-07-02T15:09:56.346Z,98437.00
2018-07-02T15:12:24.963Z,98440.00
2018-07-02T15:14:53.603Z,98441.00
2018-07-02T15:17:22.235Z,98431.00
2018-07-02T15:19:50.717Z,98435.00
2018-07-02T15:22:19.169Z,98434.00
2018-07-02T15:24:47.595Z,98446.00
2018-07-02T15:27:16.720Z,98438.00
2018-07-02T15:29:45.245Z,98431.00
2018-07-02T15:32:13.836Z,98437.00
2018-07-02T15:34:42.477Z,98434.00
2018-07-02T15:37:11.111Z,98429.00
2018-07-02T15:39:39.600Z,98433.00
2018-07-02T15:42:08.079Z,98429.00
2018-07-02T15:44:36.801Z,98432.00
2018-07-02T15:47:05.274Z,98432.00
2018-07-02T15:49:33.825Z,98427.00
2018-07-02T15:52:02.391Z,98430.00
2018-07-02T15:54:31.135Z,98423.00
2018-07-02T15:57:00.624Z,98433.00
2018-07-02T15:59:30.073Z,98426.00
2018-07-02T16:02:00.068Z,98429.00
2018-07-02T16:04:28.927Z,98429.00
2018-07-02T16:06:57.530Z,98429.00
2018-07-02T16:09:25.969Z,98422.00
2018-07-02T16:11:54.638Z,98417.00
2018-07-02T16:14:23.145Z,98428.00
2018-07-02T16:16:51.803Z,98424.00
2018-07-02T16:19:20.425Z,98426.00
2018-07-02T16:21:49.155Z,98427.00
2018-07-02T16:24:17.621Z,98425.00
2018-07-02T16:26:46.075Z,98421.00
2018-07-02T16:29:14.504Z,98412.00
2018-07-02T16:31:44.591Z,98416.00
2018-07-02T16:34:14.326Z,98413.00
2018-07-02T16:36:42.790Z,98415.00
2018-07-02T16:39:11.656Z,98409.00
2018-07-02T16:41:40.303Z,98425.00
2018-07-02T16:44:09.140Z,98420.00
2018-07-02T16:46:37.700Z,98417.00
2018-07-02T16:49:06.228Z,98406.00
2018-07-02T16:51:35.166Z,98413.00
2018-07-02T16:54:04.271Z,98409.00
2018-07-02T16:56:33.710Z,98425.00
2018-07-02T16:59:02.302Z,98412.00
2018-07-02T17:01:30.701Z,98423.00
2018-07-02T17:04:00.188Z,98422.00
2018-07-02T17:06:28.918Z,98416.00
2018-07-02T17:08:57.969Z,98420.00
2018-07-02T17:11:26.624Z,98421.00
2018-07-02T17:28:00.729Z,98420.00
2018-07-02T17:30:29.825Z,98420.00
2018-07-02T17:32:58.967Z,98419.00
2018-07-02T17:35:28.283Z,98413.00
2018-07-02T17:37:56.799Z,98423.00
2018-07-02T17:42:36.717Z,98416.00
2018-07-02T17:45:08.213Z,98427.00
2018-07-02T17:47:36.835Z,98427.00
2018-07-02T17:50:05.533Z,98432.00
2018-07-02T17:52:33.974Z,98421.00
2018-07-02T17:55:02.441Z,98430.00
2018-07-02T17:57:30.914Z,98430.00
2018-07-02T18:00:00.345Z,98433.00
2018-07-02T18:02:29.699Z,98432.00
2018-07-02T18:04:59.080Z,98433.00
2018-07-02T18:07:28.060Z,98443.00
2018-07-02T18:09:56.531Z,98445.00
2018-07-02T18:12:25.051Z,98434.00
2018-07-02T18:14:53.682Z,98442.00
2018-07-02T18:17:22.623Z,98439.00
2018-07-02T18:19:51.078Z,98446.00
2018-07-02T18:22:19.568Z,98446.00
2018-07-02T18:24:48.009Z,98450.00
2018-07-02T18:27:16.560Z,98447.00
2018-07-02T18:29:44.805Z,98448.00
2018-07-02T18:32:13.300Z,98456.00
2018-07-02T18:34:41.687Z,98455.00
2018-07-02T18:37:10.147Z,98447.00
2018-07-02T18:39:38.676Z,98455.00
2018-07-02T18:42:07.385Z,98459.00
2018-07-02T18:44:35.889Z,98457.00
2018-07-02T18:47:04.350Z,98467.00
2018-07-02T18:49:32.805Z,98466.00
2018-07-02T18:52:01.266Z,98461.00
2018-07-02T18:54:30.583Z,98454.00
2018-07-02T18:56:59.772Z,98462.00
2018-07-02T18:59:28.986Z,98466.00
2018-07-02T19:01:58.203Z,98471.00
2018-07-02T19:04:26.860Z,98473.00
2018-07-02T19:06:55.440Z,98464.00
2018-07-02T19:09:23.877Z,98468.00
2018-07-02T19:11:52.294Z,98473.00
2018-07-02T19:14:20.727Z,98477.00
2018-07-02T19:16:49.355Z,98474.00
2018-07-02T19:19:17.733Z,98473.00
2018-07-02T19:21:46.176Z,98474.00
2018-07-02T19:24:14.603Z,98478.00
2018-07-02T19:26:43.059Z,98479.00
2018-07-02T19:29:11.504Z,98481.00
2018-07-02T19:31:40.046Z,98481.00
2018-07-02T19:34:08.538Z,98487.00
2018-07-02T19:36:36.974Z,98490.00
2018-07-02T19:39:09.719Z,98493.00
2018-07-02T19:41:38.489Z,98495.00
2018-07-02T19:44:06.974Z,98506.00
2018-07-02T19:46:35.405Z,98510.00
2018-07-02T19:49:03.853Z,98506.00
2018-07-02T19:51:32.473Z,98509.00
2018-07-02T19:54:00.902Z,98515.00
2018-07-02T19:56:30.569Z,98511.00
2018-07-02T19:58:59.524Z,98515.00
2018-07-02T20:01:28.944Z,98523.00
2018-07-02T20:03:58.982Z,98521.00
2018-07-02T20:06:28.981Z,98521.00
2018-07-02T20:08:58.083Z,98535.00
2018-07-02T20:11:26.782Z,98528.00
2018-07-02T20:13:55.222Z,98531.00
2018-07-02T20:16:23.667Z,98524.00
2018-07-02T20:18:52.174Z,98535.00
2018-07-02T20:21:20.598Z,98543.00
2018-07-02T20:23:49.070Z,98548.00
2018-07-02T20:26:17.511Z,98549.00
2018-07-02T20:28:46.002Z,98549.00
2018-07-02T20:31:14.453Z,98559.00
2018-07-02T20:33:42.913Z,98555.00
2018-07-02T20:36:23.852Z,98557.00
2018-07-02T20:38:52.278Z,98564.00
2018-07-02T20:41:20.699Z,98565.00
2018-07-02T20:43:49.160Z,98568.00
2018-07-02T23:20:21.349Z,98643.00
2018-07-02T23:22:58.827Z,98656.00
2018-07-02T23:25:28.880Z,98654.00
2018-07-02T23:27:59.839Z,98649.00
2018-07-02T23:30:29.334Z,98655.00
2018-07-02T23:32:58.862Z,98641.00
2018-07-02T23:35:28.106Z,98648.00
2018-07-02T23:37:56.530Z,98638.00
2018-07-02T23:40:25.826Z,98647.00
2018-07-02T23:42:55.016Z,98651.00
2018-07-02T23:45:24.332Z,98645.00
2018-07-02T23:47:52.758Z,98650.00
2018-07-02T23:50:21.197Z,98648.00
2018-07-02T23:52:49.639Z,98643.00
2018-07-02T23:55:18.080Z,98641.00
2018-07-02T23:57:46.517Z,98646.00
